sensor_id;sensor_type;location;lat;lon;timestamp;P1;durP1;ratioP1;P2;durP2;ratioP2
65230;SDS011;51813;40.666;16.602;2023-12-20T00:01:21;9.90;;;6.88;;
65230;SDS011;51813;40.666;16.602;2023-12-20T00:03:47;9.57;;;6.88;;
65230;SDS011;51813;40.666;16.602;2023-12-20T00:06:13;10.55;;;6.85;;
65230;SDS011;51813;40.666;16.602;2023-12-20T00:08:39;11.52;;;6.78;;
65230;SDS011;51813;40.666;16.602;2023-12-20T00:11:05;9.27;;;7.00;;
65230;SDS011;51813;40.666;16.602;2023-12-20T00:13:30;10.90;;;6.82;;
65230;SDS011;51813;40.666;16.602;2023-12-20T00:15:56;10.85;;;7.07;;
65230;SDS011;51813;40.666;16.602;2023-12-20T00:18:22;9.95;;;6.93;;
65230;SDS011;51813;40.666;16.602;2023-12-20T00:20:48;9.55;;;6.70;;
65230;SDS011;51813;40.666;16.602;2023-12-20T00:23:14;9.68;;;7.28;;
65230;SDS011;51813;40.666;16.602;2023-12-20T00:25:39;8.80;;;6.30;;
65230;SDS011;51813;40.666;16.602;2023-12-20T00:28:05;11.43;;;6.72;;
65230;SDS011;51813;40.666;16.602;2023-12-20T00:30:31;10.13;;;6.65;;
65230;SDS011;51813;40.666;16.602;2023-12-20T00:32:57;9.45;;;6.80;;
65230;SDS011;51813;40.666;16.602;2023-12-20T00:35:23;10.68;;;6.80;;
65230;SDS011;51813;40.666;16.602;2023-12-20T00:37:49;8.20;;;6.18;;
65230;SDS011;51813;40.666;16.602;2023-12-20T00:40:14;8.73;;;6.63;;
65230;SDS011;51813;40.666;16.602;2023-12-20T00:42:41;8.80;;;5.97;;
65230;SDS011;51813;40.666;16.602;2023-12-20T00:45:07;8.13;;;6.05;;
65230;SDS011;51813;40.666;16.602;2023-12-20T00:47:33;8.18;;;5.70;;
65230;SDS011;51813;40.666;16.602;2023-12-20T00:49:58;7.35;;;5.40;;
65230;SDS011;51813;40.666;16.602;2023-12-20T00:52:24;8.38;;;5.78;;
65230;SDS011;51813;40.666;16.602;2023-12-20T00:54:50;6.72;;;5.03;;
65230;SDS011;51813;40.666;16.602;2023-12-20T00:57:17;7.60;;;5.13;;
65230;SDS011;51813;40.666;16.602;2023-12-20T00:59:42;6.28;;;4.78;;
65230;SDS011;51813;40.666;16.602;2023-12-20T01:02:08;7.22;;;4.80;;
65230;SDS011;51813;40.666;16.602;2023-12-20T01:04:35;6.88;;;4.78;;
65230;SDS011;51813;40.666;16.602;2023-12-20T01:07:00;7.40;;;5.10;;
65230;SDS011;51813;40.666;16.602;2023-12-20T01:09:26;6.68;;;4.70;;
65230;SDS011;51813;40.666;16.602;2023-12-20T01:11:52;6.05;;;4.07;;
65230;SDS011;51813;40.666;16.602;2023-12-20T01:14:18;6.05;;;4.18;;
65230;SDS011;51813;40.666;16.602;2023-12-20T01:16:44;7.10;;;4.13;;
65230;SDS011;51813;40.666;16.602;2023-12-20T01:19:10;5.82;;;4.10;;
65230;SDS011;51813;40.666;16.602;2023-12-20T01:21:35;6.15;;;4.30;;
65230;SDS011;51813;40.666;16.602;2023-12-20T01:24:01;6.32;;;3.85;;
65230;SDS011;51813;40.666;16.602;2023-12-20T01:26:27;6.45;;;4.22;;
65230;SDS011;51813;40.666;16.602;2023-12-20T01:28:52;4.95;;;3.50;;
65230;SDS011;51813;40.666;16.602;2023-12-20T01:31:18;5.13;;;3.55;;
65230;SDS011;51813;40.666;16.602;2023-12-20T01:33:44;6.30;;;4.22;;
65230;SDS011;51813;40.666;16.602;2023-12-20T01:36:10;5.50;;;3.50;;
65230;SDS011;51813;40.666;16.602;2023-12-20T01:38:36;6.18;;;3.90;;
65230;SDS011;51813;40.666;16.602;2023-12-20T01:41:02;5.10;;;3.45;;
65230;SDS011;51813;40.666;16.602;2023-12-20T01:43:29;6.50;;;3.92;;
65230;SDS011;51813;40.666;16.602;2023-12-20T01:45:55;5.47;;;3.50;;
65230;SDS011;51813;40.666;16.602;2023-12-20T01:48:22;5.22;;;3.50;;
65230;SDS011;51813;40.666;16.602;2023-12-20T01:50:49;5.95;;;3.42;;
65230;SDS011;51813;40.666;16.602;2023-12-20T01:53:16;5.13;;;3.38;;
65230;SDS011;51813;40.666;16.602;2023-12-20T01:55:43;5.95;;;3.17;;
65230;SDS011;51813;40.666;16.602;2023-12-20T01:58:09;5.80;;;3.20;;
65230;SDS011;51813;40.666;16.602;2023-12-20T02:00:37;5.07;;;3.42;;
65230;SDS011;51813;40.666;16.602;2023-12-20T02:03:03;4.30;;;3.03;;
65230;SDS011;51813;40.666;16.602;2023-12-20T02:05:30;4.70;;;3.22;;
65230;SDS011;51813;40.666;16.602;2023-12-20T02:07:56;4.32;;;3.03;;
65230;SDS011;51813;40.666;16.602;2023-12-20T02:10:22;5.18;;;3.30;;
65230;SDS011;51813;40.666;16.602;2023-12-20T02:12:48;4.93;;;3.05;;
65230;SDS011;51813;40.666;16.602;2023-12-20T02:15:14;5.30;;;3.30;;
65230;SDS011;51813;40.666;16.602;2023-12-20T02:17:40;5.47;;;3.38;;
65230;SDS011;51813;40.666;16.602;2023-12-20T02:20:06;4.88;;;3.00;;
65230;SDS011;51813;40.666;16.602;2023-12-20T02:22:32;4.63;;;3.15;;
65230;SDS011;51813;40.666;16.602;2023-12-20T02:24:57;5.40;;;3.15;;
65230;SDS011;51813;40.666;16.602;2023-12-20T02:27:23;4.72;;;3.00;;
65230;SDS011;51813;40.666;16.602;2023-12-20T02:29:49;5.32;;;3.30;;
65230;SDS011;51813;40.666;16.602;2023-12-20T02:32:16;4.95;;;2.90;;
65230;SDS011;51813;40.666;16.602;2023-12-20T02:34:43;5.28;;;3.30;;
65230;SDS011;51813;40.666;16.602;2023-12-20T02:37:09;4.85;;;3.33;;
65230;SDS011;51813;40.666;16.602;2023-12-20T02:39:35;4.45;;;3.35;;
65230;SDS011;51813;40.666;16.602;2023-12-20T02:42:00;5.68;;;3.10;;
65230;SDS011;51813;40.666;16.602;2023-12-20T02:44:26;4.93;;;3.20;;
65230;SDS011;51813;40.666;16.602;2023-12-20T02:46:52;4.93;;;3.10;;
65230;SDS011;51813;40.666;16.602;2023-12-20T02:49:17;4.05;;;2.65;;
65230;SDS011;51813;40.666;16.602;2023-12-20T02:51:43;4.35;;;2.63;;
65230;SDS011;51813;40.666;16.602;2023-12-20T02:54:09;4.03;;;2.63;;
65230;SDS011;51813;40.666;16.602;2023-12-20T02:56:34;4.70;;;3.05;;
65230;SDS011;51813;40.666;16.602;2023-12-20T02:59:00;5.03;;;2.92;;
65230;SDS011;51813;40.666;16.602;2023-12-20T03:01:26;4.10;;;2.70;;
65230;SDS011;51813;40.666;16.602;2023-12-20T03:03:53;6.28;;;2.92;;
65230;SDS011;51813;40.666;16.602;2023-12-20T03:06:18;4.43;;;3.08;;
65230;SDS011;51813;40.666;16.602;2023-12-20T03:08:44;4.32;;;2.80;;
65230;SDS011;51813;40.666;16.602;2023-12-20T03:11:10;4.38;;;2.60;;
65230;SDS011;51813;40.666;16.602;2023-12-20T03:13:36;3.65;;;2.50;;
65230;SDS011;51813;40.666;16.602;2023-12-20T03:16:07;4.00;;;2.65;;
65230;SDS011;51813;40.666;16.602;2023-12-20T03:18:34;4.28;;;2.58;;
65230;SDS011;51813;40.666;16.602;2023-12-20T03:20:59;3.90;;;2.60;;
65230;SDS011;51813;40.666;16.602;2023-12-20T03:23:25;4.35;;;2.78;;
65230;SDS011;51813;40.666;16.602;2023-12-20T03:25:52;4.90;;;3.00;;
65230;SDS011;51813;40.666;16.602;2023-12-20T03:28:17;4.22;;;2.78;;
65230;SDS011;51813;40.666;16.602;2023-12-20T03:30:44;3.33;;;2.33;;
65230;SDS011;51813;40.666;16.602;2023-12-20T03:33:10;3.88;;;2.53;;
65230;SDS011;51813;40.666;16.602;2023-12-20T03:35:35;3.72;;;2.47;;
65230;SDS011;51813;40.666;16.602;2023-12-20T03:38:01;3.95;;;2.50;;
65230;SDS011;51813;40.666;16.602;2023-12-20T03:40:27;3.67;;;2.40;;
65230;SDS011;51813;40.666;16.602;2023-12-20T03:42:53;3.42;;;2.45;;
65230;SDS011;51813;40.666;16.602;2023-12-20T03:45:19;4.25;;;2.97;;
65230;SDS011;51813;40.666;16.602;2023-12-20T03:47:44;4.18;;;2.60;;
65230;SDS011;51813;40.666;16.602;2023-12-20T03:50:10;4.10;;;2.45;;
65230;SDS011;51813;40.666;16.602;2023-12-20T03:52:36;3.53;;;2.30;;
65230;SDS011;51813;40.666;16.602;2023-12-20T03:55:01;3.65;;;2.50;;
65230;SDS011;51813;40.666;16.602;2023-12-20T03:57:27;3.45;;;2.50;;
65230;SDS011;51813;40.666;16.602;2023-12-20T03:59:53;3.70;;;2.40;;
65230;SDS011;51813;40.666;16.602;2023-12-20T04:02:18;3.97;;;2.30;;
65230;SDS011;51813;40.666;16.602;2023-12-20T04:04:44;4.32;;;2.30;;
65230;SDS011;51813;40.666;16.602;2023-12-20T04:07:10;3.55;;;2.45;;
65230;SDS011;51813;40.666;16.602;2023-12-20T04:09:35;4.20;;;2.40;;
65230;SDS011;51813;40.666;16.602;2023-12-20T04:12:01;4.28;;;2.45;;
65230;SDS011;51813;40.666;16.602;2023-12-20T04:14:27;3.63;;;2.47;;
65230;SDS011;51813;40.666;16.602;2023-12-20T04:16:53;4.35;;;2.70;;
65230;SDS011;51813;40.666;16.602;2023-12-20T04:19:19;4.35;;;2.47;;
65230;SDS011;51813;40.666;16.602;2023-12-20T04:21:44;3.85;;;2.40;;
65230;SDS011;51813;40.666;16.602;2023-12-20T04:24:10;4.15;;;2.60;;
65230;SDS011;51813;40.666;16.602;2023-12-20T04:26:36;3.70;;;2.60;;
65230;SDS011;51813;40.666;16.602;2023-12-20T04:29:01;4.03;;;2.45;;
65230;SDS011;51813;40.666;16.602;2023-12-20T04:31:27;3.92;;;2.65;;
65230;SDS011;51813;40.666;16.602;2023-12-20T04:33:53;4.20;;;2.70;;
65230;SDS011;51813;40.666;16.602;2023-12-20T04:36:19;4.93;;;2.90;;
65230;SDS011;51813;40.666;16.602;2023-12-20T04:38:44;3.83;;;2.60;;
65230;SDS011;51813;40.666;16.602;2023-12-20T04:41:10;4.63;;;2.85;;
65230;SDS011;51813;40.666;16.602;2023-12-20T04:43:35;5.32;;;3.10;;
65230;SDS011;51813;40.666;16.602;2023-12-20T04:46:02;3.22;;;2.58;;
65230;SDS011;51813;40.666;16.602;2023-12-20T04:48:28;4.78;;;2.90;;
65230;SDS011;51813;40.666;16.602;2023-12-20T04:50:53;4.10;;;2.75;;
65230;SDS011;51813;40.666;16.602;2023-12-20T04:53:19;4.70;;;3.15;;
65230;SDS011;51813;40.666;16.602;2023-12-20T04:55:45;4.20;;;2.70;;
65230;SDS011;51813;40.666;16.602;2023-12-20T04:58:10;4.55;;;2.72;;
65230;SDS011;51813;40.666;16.602;2023-12-20T05:00:36;5.50;;;3.35;;
65230;SDS011;51813;40.666;16.602;2023-12-20T05:03:02;4.57;;;2.92;;
65230;SDS011;51813;40.666;16.602;2023-12-20T05:05:27;4.53;;;3.20;;
65230;SDS011;51813;40.666;16.602;2023-12-20T05:07:53;5.80;;;2.92;;
65230;SDS011;51813;40.666;16.602;2023-12-20T05:10:19;6.57;;;3.20;;
65230;SDS011;51813;40.666;16.602;2023-12-20T05:12:44;5.03;;;3.33;;
65230;SDS011;51813;40.666;16.602;2023-12-20T05:15:10;5.45;;;3.42;;
65230;SDS011;51813;40.666;16.602;2023-12-20T05:17:36;5.35;;;3.15;;
65230;SDS011;51813;40.666;16.602;2023-12-20T05:20:01;6.65;;;3.60;;
65230;SDS011;51813;40.666;16.602;2023-12-20T05:22:27;4.57;;;3.20;;
65230;SDS011;51813;40.666;16.602;2023-12-20T05:24:53;4.57;;;3.08;;
65230;SDS011;51813;40.666;16.602;2023-12-20T05:27:19;4.82;;;3.15;;
65230;SDS011;51813;40.666;16.602;2023-12-20T05:29:44;4.43;;;3.00;;
65230;SDS011;51813;40.666;16.602;2023-12-20T05:32:10;4.53;;;3.28;;
65230;SDS011;51813;40.666;16.602;2023-12-20T05:34:36;5.25;;;3.00;;
65230;SDS011;51813;40.666;16.602;2023-12-20T05:37:02;5.20;;;3.35;;
65230;SDS011;51813;40.666;16.602;2023-12-20T05:39:28;4.65;;;3.25;;
65230;SDS011;51813;40.666;16.602;2023-12-20T05:41:56;4.57;;;2.90;;
65230;SDS011;51813;40.666;16.602;2023-12-20T05:44:21;5.38;;;3.42;;
65230;SDS011;51813;40.666;16.602;2023-12-20T05:46:47;4.47;;;3.55;;
65230;SDS011;51813;40.666;16.602;2023-12-20T05:49:13;4.65;;;3.13;;
65230;SDS011;51813;40.666;16.602;2023-12-20T05:51:39;4.20;;;2.78;;
65230;SDS011;51813;40.666;16.602;2023-12-20T05:54:04;6.32;;;3.50;;
65230;SDS011;51813;40.666;16.602;2023-12-20T05:56:30;4.28;;;3.00;;
65230;SDS011;51813;40.666;16.602;2023-12-20T05:58:55;4.95;;;3.13;;
65230;SDS011;51813;40.666;16.602;2023-12-20T06:01:21;4.07;;;2.70;;
65230;SDS011;51813;40.666;16.602;2023-12-20T06:03:47;5.22;;;3.33;;
65230;SDS011;51813;40.666;16.602;2023-12-20T06:06:12;4.72;;;2.97;;
65230;SDS011;51813;40.666;16.602;2023-12-20T06:08:38;4.30;;;3.10;;
65230;SDS011;51813;40.666;16.602;2023-12-20T06:11:04;4.45;;;3.25;;
65230;SDS011;51813;40.666;16.602;2023-12-20T06:13:32;4.95;;;3.28;;
65230;SDS011;51813;40.666;16.602;2023-12-20T06:15:58;5.18;;;3.42;;
65230;SDS011;51813;40.666;16.602;2023-12-20T06:18:24;5.70;;;3.17;;
65230;SDS011;51813;40.666;16.602;2023-12-20T06:20:50;5.05;;;3.38;;
65230;SDS011;51813;40.666;16.602;2023-12-20T06:23:15;4.95;;;3.25;;
65230;SDS011;51813;40.666;16.602;2023-12-20T06:25:41;4.38;;;2.88;;
65230;SDS011;51813;40.666;16.602;2023-12-20T06:28:07;5.88;;;3.58;;
65230;SDS011;51813;40.666;16.602;2023-12-20T06:30:35;5.20;;;3.05;;
65230;SDS011;51813;40.666;16.602;2023-12-20T06:33:01;4.50;;;2.78;;
65230;SDS011;51813;40.666;16.602;2023-12-20T06:35:26;3.95;;;2.88;;
65230;SDS011;51813;40.666;16.602;2023-12-20T06:37:52;4.55;;;2.80;;
65230;SDS011;51813;40.666;16.602;2023-12-20T06:40:18;6.45;;;4.00;;
65230;SDS011;51813;40.666;16.602;2023-12-20T06:42:43;4.30;;;3.13;;
65230;SDS011;51813;40.666;16.602;2023-12-20T06:45:09;5.22;;;3.13;;
65230;SDS011;51813;40.666;16.602;2023-12-20T06:47:35;5.32;;;3.30;;
65230;SDS011;51813;40.666;16.602;2023-12-20T06:50:01;4.45;;;3.00;;
65230;SDS011;51813;40.666;16.602;2023-12-20T06:52:26;4.93;;;3.25;;
65230;SDS011;51813;40.666;16.602;2023-12-20T06:54:52;5.38;;;3.20;;
65230;SDS011;51813;40.666;16.602;2023-12-20T06:57:18;5.03;;;3.22;;
65230;SDS011;51813;40.666;16.602;2023-12-20T06:59:44;6.07;;;3.45;;
65230;SDS011;51813;40.666;16.602;2023-12-20T07:02:10;4.80;;;3.40;;
65230;SDS011;51813;40.666;16.602;2023-12-20T07:04:39;4.32;;;3.20;;
65230;SDS011;51813;40.666;16.602;2023-12-20T07:07:05;5.60;;;3.55;;
65230;SDS011;51813;40.666;16.602;2023-12-20T07:09:32;5.70;;;3.38;;
65230;SDS011;51813;40.666;16.602;2023-12-20T07:11:58;4.57;;;3.25;;
65230;SDS011;51813;40.666;16.602;2023-12-20T07:14:24;5.88;;;3.42;;
65230;SDS011;51813;40.666;16.602;2023-12-20T07:16:50;5.63;;;3.35;;
65230;SDS011;51813;40.666;16.602;2023-12-20T07:19:15;5.28;;;3.83;;
65230;SDS011;51813;40.666;16.602;2023-12-20T07:21:41;5.82;;;3.85;;
65230;SDS011;51813;40.666;16.602;2023-12-20T07:24:07;6.68;;;3.08;;
65230;SDS011;51813;40.666;16.602;2023-12-20T07:26:33;4.13;;;3.00;;
65230;SDS011;51813;40.666;16.602;2023-12-20T07:28:59;4.40;;;3.05;;
65230;SDS011;51813;40.666;16.602;2023-12-20T07:31:24;5.53;;;3.20;;
65230;SDS011;51813;40.666;16.602;2023-12-20T07:33:50;5.35;;;3.20;;
65230;SDS011;51813;40.666;16.602;2023-12-20T07:36:16;5.35;;;3.38;;
65230;SDS011;51813;40.666;16.602;2023-12-20T07:38:41;5.82;;;3.75;;
65230;SDS011;51813;40.666;16.602;2023-12-20T07:41:09;4.82;;;2.85;;
65230;SDS011;51813;40.666;16.602;2023-12-20T07:43:35;5.40;;;3.50;;
65230;SDS011;51813;40.666;16.602;2023-12-20T07:46:07;6.03;;;3.40;;
65230;SDS011;51813;40.666;16.602;2023-12-20T07:48:36;4.28;;;3.15;;
65230;SDS011;51813;40.666;16.602;2023-12-20T07:51:03;4.65;;;3.22;;
65230;SDS011;51813;40.666;16.602;2023-12-20T07:53:29;5.00;;;3.13;;
65230;SDS011;51813;40.666;16.602;2023-12-20T07:55:55;4.93;;;3.30;;
65230;SDS011;51813;40.666;16.602;2023-12-20T07:58:20;4.88;;;3.08;;
65230;SDS011;51813;40.666;16.602;2023-12-20T08:00:47;4.63;;;3.22;;
65230;SDS011;51813;40.666;16.602;2023-12-20T08:03:12;5.38;;;3.25;;
65230;SDS011;51813;40.666;16.602;2023-12-20T08:05:38;4.85;;;3.08;;
65230;SDS011;51813;40.666;16.602;2023-12-20T08:08:07;4.95;;;3.10;;
65230;SDS011;51813;40.666;16.602;2023-12-20T08:10:33;4.40;;;3.05;;
65230;SDS011;51813;40.666;16.602;2023-12-20T08:12:58;4.10;;;2.85;;
65230;SDS011;51813;40.666;16.602;2023-12-20T08:15:24;5.05;;;3.15;;
65230;SDS011;51813;40.666;16.602;2023-12-20T08:17:50;4.97;;;2.95;;
65230;SDS011;51813;40.666;16.602;2023-12-20T08:20:18;5.13;;;3.30;;
65230;SDS011;51813;40.666;16.602;2023-12-20T08:22:44;4.93;;;3.22;;
65230;SDS011;51813;40.666;16.602;2023-12-20T08:25:10;4.28;;;2.80;;
65230;SDS011;51813;40.666;16.602;2023-12-20T08:27:41;5.72;;;3.03;;
65230;SDS011;51813;40.666;16.602;2023-12-20T08:30:10;5.80;;;3.35;;
65230;SDS011;51813;40.666;16.602;2023-12-20T08:32:36;5.70;;;3.50;;
65230;SDS011;51813;40.666;16.602;2023-12-20T08:35:01;5.00;;;3.13;;
65230;SDS011;51813;40.666;16.602;2023-12-20T08:37:27;5.50;;;3.63;;
65230;SDS011;51813;40.666;16.602;2023-12-20T08:39:54;5.47;;;3.38;;
65230;SDS011;51813;40.666;16.602;2023-12-20T08:42:20;4.57;;;3.40;;
65230;SDS011;51813;40.666;16.602;2023-12-20T08:44:46;5.20;;;3.58;;
65230;SDS011;51813;40.666;16.602;2023-12-20T08:47:12;5.82;;;3.72;;
65230;SDS011;51813;40.666;16.602;2023-12-20T08:49:40;5.03;;;3.58;;
65230;SDS011;51813;40.666;16.602;2023-12-20T08:52:06;5.00;;;3.40;;
65230;SDS011;51813;40.666;16.602;2023-12-20T08:54:32;6.55;;;4.10;;
65230;SDS011;51813;40.666;16.602;2023-12-20T08:56:57;5.55;;;3.35;;
65230;SDS011;51813;40.666;16.602;2023-12-20T08:59:23;6.45;;;3.67;;
65230;SDS011;51813;40.666;16.602;2023-12-20T09:01:49;6.05;;;3.67;;
65230;SDS011;51813;40.666;16.602;2023-12-20T09:04:19;5.73;;;3.73;;
65230;SDS011;51813;40.666;16.602;2023-12-20T09:06:45;6.90;;;3.80;;
65230;SDS011;51813;40.666;16.602;2023-12-20T09:09:10;5.55;;;4.20;;
65230;SDS011;51813;40.666;16.602;2023-12-20T09:11:38;5.07;;;3.05;;
65230;SDS011;51813;40.666;16.602;2023-12-20T09:14:04;5.13;;;3.47;;
65230;SDS011;51813;40.666;16.602;2023-12-20T09:16:30;4.50;;;3.10;;
65230;SDS011;51813;40.666;16.602;2023-12-20T09:18:56;5.10;;;3.38;;
65230;SDS011;51813;40.666;16.602;2023-12-20T09:21:22;5.30;;;3.33;;
65230;SDS011;51813;40.666;16.602;2023-12-20T09:23:48;4.10;;;3.38;;
65230;SDS011;51813;40.666;16.602;2023-12-20T09:26:14;4.95;;;3.72;;
65230;SDS011;51813;40.666;16.602;2023-12-20T09:28:39;5.43;;;3.90;;
65230;SDS011;51813;40.666;16.602;2023-12-20T09:31:05;4.45;;;3.15;;
65230;SDS011;51813;40.666;16.602;2023-12-20T09:33:32;5.00;;;3.55;;
65230;SDS011;51813;40.666;16.602;2023-12-20T09:35:58;6.18;;;3.72;;
65230;SDS011;51813;40.666;16.602;2023-12-20T09:38:23;5.25;;;3.45;;
65230;SDS011;51813;40.666;16.602;2023-12-20T09:40:49;4.88;;;3.10;;
65230;SDS011;51813;40.666;16.602;2023-12-20T09:43:15;6.00;;;4.03;;
65230;SDS011;51813;40.666;16.602;2023-12-20T09:45:47;5.68;;;3.90;;
65230;SDS011;51813;40.666;16.602;2023-12-20T09:48:13;6.47;;;4.30;;
65230;SDS011;51813;40.666;16.602;2023-12-20T09:50:43;4.68;;;3.60;;
65230;SDS011;51813;40.666;16.602;2023-12-20T09:53:09;5.43;;;3.72;;
65230;SDS011;51813;40.666;16.602;2023-12-20T09:55:39;6.53;;;3.80;;
65230;SDS011;51813;40.666;16.602;2023-12-20T09:58:07;5.50;;;3.80;;
65230;SDS011;51813;40.666;16.602;2023-12-20T10:00:34;6.53;;;3.70;;
65230;SDS011;51813;40.666;16.602;2023-12-20T10:03:00;5.00;;;3.55;;
65230;SDS011;51813;40.666;16.602;2023-12-20T10:05:30;5.70;;;3.42;;
65230;SDS011;51813;40.666;16.602;2023-12-20T10:07:57;6.17;;;4.30;;
65230;SDS011;51813;40.666;16.602;2023-12-20T10:10:23;7.00;;;4.47;;
65230;SDS011;51813;40.666;16.602;2023-12-20T10:13:02;10.02;;;4.53;;
65230;SDS011;51813;40.666;16.602;2023-12-20T10:15:28;7.30;;;4.20;;
65230;SDS011;51813;40.666;16.602;2023-12-20T10:17:54;6.30;;;4.15;;
65230;SDS011;51813;40.666;16.602;2023-12-20T10:20:20;6.53;;;3.85;;
65230;SDS011;51813;40.666;16.602;2023-12-20T10:22:46;6.82;;;4.28;;
65230;SDS011;51813;40.666;16.602;2023-12-20T10:25:12;5.40;;;3.80;;
65230;SDS011;51813;40.666;16.602;2023-12-20T10:27:38;6.10;;;4.05;;
65230;SDS011;51813;40.666;16.602;2023-12-20T10:30:03;6.10;;;4.00;;
65230;SDS011;51813;40.666;16.602;2023-12-20T10:32:29;6.10;;;4.20;;
65230;SDS011;51813;40.666;16.602;2023-12-20T10:34:56;6.63;;;3.88;;
65230;SDS011;51813;40.666;16.602;2023-12-20T10:37:22;5.97;;;3.83;;
65230;SDS011;51813;40.666;16.602;2023-12-20T10:39:49;4.93;;;3.55;;
65230;SDS011;51813;40.666;16.602;2023-12-20T10:42:26;5.57;;;3.85;;
65230;SDS011;51813;40.666;16.602;2023-12-20T10:44:52;5.95;;;3.42;;
65230;SDS011;51813;40.666;16.602;2023-12-20T10:47:19;6.18;;;3.80;;
65230;SDS011;51813;40.666;16.602;2023-12-20T10:49:45;4.80;;;3.53;;
65230;SDS011;51813;40.666;16.602;2023-12-20T10:52:12;6.38;;;4.18;;
65230;SDS011;51813;40.666;16.602;2023-12-20T10:54:41;5.50;;;3.97;;
65230;SDS011;51813;40.666;16.602;2023-12-20T10:57:07;7.57;;;3.80;;
65230;SDS011;51813;40.666;16.602;2023-12-20T10:59:33;4.80;;;3.35;;
65230;SDS011;51813;40.666;16.602;2023-12-20T11:02:04;5.40;;;3.50;;
65230;SDS011;51813;40.666;16.602;2023-12-20T11:04:36;5.20;;;3.67;;
65230;SDS011;51813;40.666;16.602;2023-12-20T11:07:19;5.30;;;3.60;;
65230;SDS011;51813;40.666;16.602;2023-12-20T11:10:09;5.60;;;3.20;;
65230;SDS011;51813;40.666;16.602;2023-12-20T11:15:34;4.85;;;3.30;;
65230;SDS011;51813;40.666;16.602;2023-12-20T11:18:01;5.28;;;3.20;;
65230;SDS011;51813;40.666;16.602;2023-12-20T11:20:39;4.55;;;3.40;;
65230;SDS011;51813;40.666;16.602;2023-12-20T11:23:06;4.82;;;3.35;;
65230;SDS011;51813;40.666;16.602;2023-12-20T11:25:48;5.78;;;3.45;;
65230;SDS011;51813;40.666;16.602;2023-12-20T11:28:22;5.38;;;3.47;;
65230;SDS011;51813;40.666;16.602;2023-12-20T11:30:53;6.25;;;3.50;;
65230;SDS011;51813;40.666;16.602;2023-12-20T11:33:23;5.50;;;3.22;;
65230;SDS011;51813;40.666;16.602;2023-12-20T11:36:03;5.00;;;3.10;;
65230;SDS011;51813;40.666;16.602;2023-12-20T11:38:37;4.07;;;3.28;;
65230;SDS011;51813;40.666;16.602;2023-12-20T11:41:05;4.70;;;3.22;;
65230;SDS011;51813;40.666;16.602;2023-12-20T11:46:06;6.00;;;4.18;;
65230;SDS011;51813;40.666;16.602;2023-12-20T11:48:34;6.03;;;3.92;;
65230;SDS011;51813;40.666;16.602;2023-12-20T11:51:02;5.22;;;3.55;;
65230;SDS011;51813;40.666;16.602;2023-12-20T11:53:29;5.55;;;3.35;;
65230;SDS011;51813;40.666;16.602;2023-12-20T11:55:56;6.00;;;3.40;;
65230;SDS011;51813;40.666;16.602;2023-12-20T11:58:22;5.32;;;3.50;;
65230;SDS011;51813;40.666;16.602;2023-12-20T12:00:49;5.60;;;3.70;;
65230;SDS011;51813;40.666;16.602;2023-12-20T12:03:15;5.95;;;3.40;;
65230;SDS011;51813;40.666;16.602;2023-12-20T12:05:41;4.95;;;3.25;;
65230;SDS011;51813;40.666;16.602;2023-12-20T12:08:06;4.55;;;3.10;;
65230;SDS011;51813;40.666;16.602;2023-12-20T12:10:32;5.78;;;3.42;;
65230;SDS011;51813;40.666;16.602;2023-12-20T12:12:58;5.57;;;3.40;;
65230;SDS011;51813;40.666;16.602;2023-12-20T12:15:25;6.15;;;3.88;;
65230;SDS011;51813;40.666;16.602;2023-12-20T12:17:54;4.80;;;3.33;;
65230;SDS011;51813;40.666;16.602;2023-12-20T12:20:21;5.27;;;3.30;;
65230;SDS011;51813;40.666;16.602;2023-12-20T12:22:57;5.28;;;3.88;;
65230;SDS011;51813;40.666;16.602;2023-12-20T12:25:23;6.40;;;3.30;;
65230;SDS011;51813;40.666;16.602;2023-12-20T12:27:50;4.90;;;3.58;;
65230;SDS011;51813;40.666;16.602;2023-12-20T12:30:16;4.95;;;3.28;;
65230;SDS011;51813;40.666;16.602;2023-12-20T12:32:43;5.15;;;3.65;;
65230;SDS011;51813;40.666;16.602;2023-12-20T12:35:10;5.30;;;3.58;;
65230;SDS011;51813;40.666;16.602;2023-12-20T12:37:39;6.13;;;3.40;;
65230;SDS011;51813;40.666;16.602;2023-12-20T12:40:06;5.07;;;3.50;;
65230;SDS011;51813;40.666;16.602;2023-12-20T12:42:39;4.50;;;3.00;;
65230;SDS011;51813;40.666;16.602;2023-12-20T12:45:06;4.22;;;3.13;;
65230;SDS011;51813;40.666;16.602;2023-12-20T12:47:33;5.47;;;3.40;;
65230;SDS011;51813;40.666;16.602;2023-12-20T12:49:59;4.50;;;2.83;;
65230;SDS011;51813;40.666;16.602;2023-12-20T12:52:25;4.38;;;3.20;;
65230;SDS011;51813;40.666;16.602;2023-12-20T12:54:52;5.80;;;3.20;;
65230;SDS011;51813;40.666;16.602;2023-12-20T12:57:18;5.07;;;3.30;;
65230;SDS011;51813;40.666;16.602;2023-12-20T12:59:44;6.35;;;3.17;;
65230;SDS011;51813;40.666;16.602;2023-12-20T13:02:13;5.25;;;3.50;;
65230;SDS011;51813;40.666;16.602;2023-12-20T13:04:39;6.15;;;3.08;;
65230;SDS011;51813;40.666;16.602;2023-12-20T13:07:06;5.13;;;3.13;;
65230;SDS011;51813;40.666;16.602;2023-12-20T13:09:32;6.28;;;3.58;;
65230;SDS011;51813;40.666;16.602;2023-12-20T13:11:58;5.18;;;3.13;;
65230;SDS011;51813;40.666;16.602;2023-12-20T13:14:24;5.15;;;3.50;;
65230;SDS011;51813;40.666;16.602;2023-12-20T13:16:50;4.55;;;3.08;;
65230;SDS011;51813;40.666;16.602;2023-12-20T13:19:15;4.93;;;3.38;;
65230;SDS011;51813;40.666;16.602;2023-12-20T13:21:42;4.30;;;3.03;;
65230;SDS011;51813;40.666;16.602;2023-12-20T13:24:08;5.15;;;3.38;;
65230;SDS011;51813;40.666;16.602;2023-12-20T13:26:34;4.22;;;3.08;;
65230;SDS011;51813;40.666;16.602;2023-12-20T13:28:59;4.65;;;2.97;;
65230;SDS011;51813;40.666;16.602;2023-12-20T13:31:25;4.78;;;3.20;;
65230;SDS011;51813;40.666;16.602;2023-12-20T13:33:51;6.03;;;3.47;;
65230;SDS011;51813;40.666;16.602;2023-12-20T13:36:17;5.00;;;3.03;;
65230;SDS011;51813;40.666;16.602;2023-12-20T13:38:44;4.65;;;3.20;;
65230;SDS011;51813;40.666;16.602;2023-12-20T13:41:09;4.07;;;3.05;;
65230;SDS011;51813;40.666;16.602;2023-12-20T13:43:35;4.72;;;3.38;;
65230;SDS011;51813;40.666;16.602;2023-12-20T13:46:01;5.00;;;3.63;;
65230;SDS011;51813;40.666;16.602;2023-12-20T13:48:26;4.95;;;3.10;;
65230;SDS011;51813;40.666;16.602;2023-12-20T13:50:52;4.57;;;3.20;;
65230;SDS011;51813;40.666;16.602;2023-12-20T13:53:19;5.13;;;2.90;;
65230;SDS011;51813;40.666;16.602;2023-12-20T13:55:45;4.05;;;2.92;;
65230;SDS011;51813;40.666;16.602;2023-12-20T13:58:11;5.20;;;3.08;;
65230;SDS011;51813;40.666;16.602;2023-12-20T14:00:37;4.00;;;2.72;;
65230;SDS011;51813;40.666;16.602;2023-12-20T14:03:03;5.60;;;2.97;;
65230;SDS011;51813;40.666;16.602;2023-12-20T14:05:29;5.20;;;3.17;;
65230;SDS011;51813;40.666;16.602;2023-12-20T14:07:55;5.38;;;3.20;;
65230;SDS011;51813;40.666;16.602;2023-12-20T14:10:24;4.10;;;3.10;;
65230;SDS011;51813;40.666;16.602;2023-12-20T14:12:55;4.15;;;2.80;;
65230;SDS011;51813;40.666;16.602;2023-12-20T14:15:21;4.78;;;2.67;;
65230;SDS011;51813;40.666;16.602;2023-12-20T14:17:50;5.45;;;2.75;;
65230;SDS011;51813;40.666;16.602;2023-12-20T14:20:15;4.80;;;2.70;;
65230;SDS011;51813;40.666;16.602;2023-12-20T14:22:42;4.20;;;2.85;;
65230;SDS011;51813;40.666;16.602;2023-12-20T14:25:11;4.35;;;2.90;;
65230;SDS011;51813;40.666;16.602;2023-12-20T14:27:38;5.45;;;2.85;;
65230;SDS011;51813;40.666;16.602;2023-12-20T14:30:08;3.95;;;2.72;;
65230;SDS011;51813;40.666;16.602;2023-12-20T14:32:35;4.55;;;2.80;;
65230;SDS011;51813;40.666;16.602;2023-12-20T14:35:04;3.88;;;2.72;;